sensor_id;sensor_type;location;lat;lon;timestamp;P1;durP1;ratioP1;P2;durP2;ratioP2
80233;SDS011;69712;42.142;24.766;2023-11-21T00:00:00;5.28;;;3.00;;
80233;SDS011;69712;42.142;24.766;2023-11-21T00:02:26;4.35;;;3.15;;
80233;SDS011;69712;42.142;24.766;2023-11-21T00:04:53;5.95;;;3.10;;
80233;SDS011;69712;42.142;24.766;2023-11-21T00:07:19;5.65;;;3.30;;
80233;SDS011;69712;42.142;24.766;2023-11-21T00:09:46;7.65;;;3.10;;
80233;SDS011;69712;42.142;24.766;2023-11-21T00:12:12;6.05;;;3.10;;
80233;SDS011;69712;42.142;24.766;2023-11-21T00:14:39;8.98;;;4.00;;
80233;SDS011;69712;42.142;24.766;2023-11-21T00:17:05;8.35;;;4.43;;
80233;SDS011;69712;42.142;24.766;2023-11-21T00:19:31;10.60;;;4.90;;
80233;SDS011;69712;42.142;24.766;2023-11-21T00:21:58;9.27;;;4.35;;
80233;SDS011;69712;42.142;24.766;2023-11-21T00:24:24;10.40;;;4.07;;
80233;SDS011;69712;42.142;24.766;2023-11-21T00:26:51;9.43;;;4.65;;
80233;SDS011;69712;42.142;24.766;2023-11-21T00:29:18;9.13;;;4.45;;
80233;SDS011;69712;42.142;24.766;2023-11-21T00:31:44;9.93;;;4.40;;
80233;SDS011;69712;42.142;24.766;2023-11-21T00:34:11;11.63;;;4.68;;
80233;SDS011;69712;42.142;24.766;2023-11-21T00:36:37;12.10;;;4.60;;
80233;SDS011;69712;42.142;24.766;2023-11-21T00:39:03;12.93;;;4.57;;
80233;SDS011;69712;42.142;24.766;2023-11-21T00:41:30;11.70;;;5.38;;
80233;SDS011;69712;42.142;24.766;2023-11-21T00:43:56;11.70;;;5.80;;
80233;SDS011;69712;42.142;24.766;2023-11-21T00:46:22;9.85;;;5.55;;
80233;SDS011;69712;42.142;24.766;2023-11-21T00:48:49;12.27;;;6.18;;
80233;SDS011;69712;42.142;24.766;2023-11-21T00:51:15;12.80;;;6.25;;
80233;SDS011;69712;42.142;24.766;2023-11-21T00:53:40;16.15;;;6.38;;
80233;SDS011;69712;42.142;24.766;2023-11-21T00:56:06;16.00;;;6.50;;
80233;SDS011;69712;42.142;24.766;2023-11-21T00:58:33;14.77;;;6.43;;
80233;SDS011;69712;42.142;24.766;2023-11-21T01:00:59;14.70;;;6.13;;
80233;SDS011;69712;42.142;24.766;2023-11-21T01:03:25;11.40;;;6.50;;
80233;SDS011;69712;42.142;24.766;2023-11-21T01:05:51;15.40;;;6.82;;
80233;SDS011;69712;42.142;24.766;2023-11-21T01:08:16;13.57;;;6.65;;
80233;SDS011;69712;42.142;24.766;2023-11-21T01:10:42;12.90;;;6.07;;
80233;SDS011;69712;42.142;24.766;2023-11-21T01:13:08;10.38;;;5.97;;
80233;SDS011;69712;42.142;24.766;2023-11-21T01:15:34;10.80;;;6.07;;
80233;SDS011;69712;42.142;24.766;2023-11-21T01:17:59;13.98;;;6.18;;
80233;SDS011;69712;42.142;24.766;2023-11-21T01:20:25;12.32;;;5.93;;
80233;SDS011;69712;42.142;24.766;2023-11-21T01:22:51;11.52;;;5.70;;
80233;SDS011;69712;42.142;24.766;2023-11-21T01:25:18;10.10;;;5.40;;
80233;SDS011;69712;42.142;24.766;2023-11-21T01:27:46;10.45;;;5.35;;
80233;SDS011;69712;42.142;24.766;2023-11-21T01:30:12;9.73;;;5.30;;
80233;SDS011;69712;42.142;24.766;2023-11-21T01:32:38;9.70;;;5.70;;
80233;SDS011;69712;42.142;24.766;2023-11-21T01:35:05;14.07;;;6.30;;
80233;SDS011;69712;42.142;24.766;2023-11-21T01:37:34;11.57;;;5.72;;
80233;SDS011;69712;42.142;24.766;2023-11-21T01:40:00;10.68;;;5.90;;
80233;SDS011;69712;42.142;24.766;2023-11-21T01:42:27;10.23;;;6.07;;
80233;SDS011;69712;42.142;24.766;2023-11-21T01:44:54;13.95;;;6.53;;
80233;SDS011;69712;42.142;24.766;2023-11-21T01:47:20;11.20;;;7.00;;
80233;SDS011;69712;42.142;24.766;2023-11-21T01:49:46;11.63;;;6.93;;
80233;SDS011;69712;42.142;24.766;2023-11-21T01:52:12;14.88;;;6.78;;
80233;SDS011;69712;42.142;24.766;2023-11-21T01:54:39;14.52;;;7.22;;
80233;SDS011;69712;42.142;24.766;2023-11-21T01:57:06;11.50;;;7.40;;
80233;SDS011;69712;42.142;24.766;2023-11-21T01:59:35;12.50;;;7.13;;
80233;SDS011;69712;42.142;24.766;2023-11-21T02:02:07;12.65;;;6.95;;
80233;SDS011;69712;42.142;24.766;2023-11-21T02:04:34;14.40;;;7.45;;
80233;SDS011;69712;42.142;24.766;2023-11-21T02:07:01;11.30;;;7.13;;
80233;SDS011;69712;42.142;24.766;2023-11-21T02:09:31;10.57;;;6.90;;
80233;SDS011;69712;42.142;24.766;2023-11-21T02:11:58;12.32;;;7.18;;
80233;SDS011;69712;42.142;24.766;2023-11-21T02:14:25;13.30;;;7.30;;
80233;SDS011;69712;42.142;24.766;2023-11-21T02:16:52;10.13;;;7.43;;
80233;SDS011;69712;42.142;24.766;2023-11-21T02:19:19;13.90;;;8.23;;
80233;SDS011;69712;42.142;24.766;2023-11-21T02:21:49;13.38;;;8.35;;
80233;SDS011;69712;42.142;24.766;2023-11-21T02:24:18;15.88;;;9.00;;
80233;SDS011;69712;42.142;24.766;2023-11-21T02:26:45;15.02;;;8.73;;
80233;SDS011;69712;42.142;24.766;2023-11-21T02:29:11;14.45;;;8.32;;
80233;SDS011;69712;42.142;24.766;2023-11-21T02:31:38;15.93;;;11.75;;
80233;SDS011;69712;42.142;24.766;2023-11-21T02:34:13;14.80;;;10.30;;
80233;SDS011;69712;42.142;24.766;2023-11-21T02:36:40;15.15;;;9.65;;
80233;SDS011;69712;42.142;24.766;2023-11-21T02:39:07;16.92;;;10.02;;
80233;SDS011;69712;42.142;24.766;2023-11-21T02:41:33;17.85;;;10.32;;
80233;SDS011;69712;42.142;24.766;2023-11-21T02:43:59;15.63;;;10.30;;
80233;SDS011;69712;42.142;24.766;2023-11-21T02:46:26;16.27;;;10.40;;
80233;SDS011;69712;42.142;24.766;2023-11-21T02:48:52;17.38;;;12.07;;
80233;SDS011;69712;42.142;24.766;2023-11-21T02:51:20;17.85;;;11.63;;
80233;SDS011;69712;42.142;24.766;2023-11-21T02:53:46;17.92;;;10.57;;
80233;SDS011;69712;42.142;24.766;2023-11-21T02:56:12;17.70;;;9.95;;
80233;SDS011;69712;42.142;24.766;2023-11-21T02:58:41;17.70;;;10.88;;
80233;SDS011;69712;42.142;24.766;2023-11-21T03:01:09;16.92;;;10.10;;
80233;SDS011;69712;42.142;24.766;2023-11-21T03:03:36;17.45;;;10.55;;
80233;SDS011;69712;42.142;24.766;2023-11-21T03:06:05;16.23;;;10.13;;
80233;SDS011;69712;42.142;24.766;2023-11-21T03:08:31;16.77;;;10.57;;
80233;SDS011;69712;42.142;24.766;2023-11-21T03:10:57;16.77;;;10.10;;
80233;SDS011;69712;42.142;24.766;2023-11-21T03:13:23;16.88;;;10.85;;
80233;SDS011;69712;42.142;24.766;2023-11-21T03:15:49;14.27;;;10.18;;
80233;SDS011;69712;42.142;24.766;2023-11-21T03:18:15;17.50;;;10.43;;
80233;SDS011;69712;42.142;24.766;2023-11-21T03:20:40;15.45;;;10.23;;
80233;SDS011;69712;42.142;24.766;2023-11-21T03:23:06;19.38;;;10.25;;
80233;SDS011;69712;42.142;24.766;2023-11-21T03:25:32;16.20;;;9.73;;
80233;SDS011;69712;42.142;24.766;2023-11-21T03:27:58;16.48;;;10.18;;
80233;SDS011;69712;42.142;24.766;2023-11-21T03:30:23;15.20;;;9.63;;
80233;SDS011;69712;42.142;24.766;2023-11-21T03:32:49;16.95;;;10.05;;
80233;SDS011;69712;42.142;24.766;2023-11-21T03:35:15;13.73;;;9.80;;
80233;SDS011;69712;42.142;24.766;2023-11-21T03:37:41;14.65;;;9.70;;
80233;SDS011;69712;42.142;24.766;2023-11-21T03:40:08;16.23;;;9.98;;
80233;SDS011;69712;42.142;24.766;2023-11-21T03:42:34;14.70;;;9.15;;
80233;SDS011;69712;42.142;24.766;2023-11-21T03:45:00;15.15;;;9.98;;
80233;SDS011;69712;42.142;24.766;2023-11-21T03:47:27;15.38;;;9.82;;
80233;SDS011;69712;42.142;24.766;2023-11-21T03:49:53;16.00;;;9.32;;
80233;SDS011;69712;42.142;24.766;2023-11-21T03:52:19;14.63;;;9.85;;
80233;SDS011;69712;42.142;24.766;2023-11-21T03:54:44;11.85;;;8.77;;
80233;SDS011;69712;42.142;24.766;2023-11-21T03:57:11;14.68;;;9.30;;
80233;SDS011;69712;42.142;24.766;2023-11-21T03:59:39;16.73;;;9.55;;
80233;SDS011;69712;42.142;24.766;2023-11-21T04:02:06;18.92;;;9.85;;
80233;SDS011;69712;42.142;24.766;2023-11-21T04:04:32;14.65;;;9.70;;
80233;SDS011;69712;42.142;24.766;2023-11-21T04:06:59;15.38;;;9.55;;
80233;SDS011;69712;42.142;24.766;2023-11-21T04:09:25;13.98;;;9.15;;
80233;SDS011;69712;42.142;24.766;2023-11-21T04:11:51;18.42;;;11.57;;
80233;SDS011;69712;42.142;24.766;2023-11-21T04:14:17;20.65;;;12.00;;
80233;SDS011;69712;42.142;24.766;2023-11-21T04:16:43;20.20;;;10.95;;
80233;SDS011;69712;42.142;24.766;2023-11-21T04:19:09;16.92;;;10.15;;
80233;SDS011;69712;42.142;24.766;2023-11-21T04:21:36;19.55;;;9.80;;
80233;SDS011;69712;42.142;24.766;2023-11-21T04:24:02;15.80;;;10.05;;
80233;SDS011;69712;42.142;24.766;2023-11-21T04:26:28;15.48;;;9.73;;
80233;SDS011;69712;42.142;24.766;2023-11-21T04:28:54;18.30;;;10.90;;
80233;SDS011;69712;42.142;24.766;2023-11-21T04:31:19;16.27;;;10.93;;
80233;SDS011;69712;42.142;24.766;2023-11-21T04:33:45;19.33;;;10.85;;
80233;SDS011;69712;42.142;24.766;2023-11-21T04:36:11;16.80;;;9.80;;
80233;SDS011;69712;42.142;24.766;2023-11-21T04:38:37;18.38;;;10.32;;
80233;SDS011;69712;42.142;24.766;2023-11-21T04:41:02;18.98;;;12.82;;
80233;SDS011;69712;42.142;24.766;2023-11-21T04:43:28;19.00;;;10.93;;
80233;SDS011;69712;42.142;24.766;2023-11-21T04:45:54;18.92;;;11.00;;
80233;SDS011;69712;42.142;24.766;2023-11-21T04:48:20;23.52;;;12.15;;
80233;SDS011;69712;42.142;24.766;2023-11-21T04:50:46;21.50;;;12.52;;
80233;SDS011;69712;42.142;24.766;2023-11-21T04:53:12;22.70;;;12.93;;
80233;SDS011;69712;42.142;24.766;2023-11-21T04:55:39;21.73;;;12.75;;
80233;SDS011;69712;42.142;24.766;2023-11-21T04:58:05;21.25;;;12.45;;
80233;SDS011;69712;42.142;24.766;2023-11-21T05:00:31;25.60;;;13.45;;
80233;SDS011;69712;42.142;24.766;2023-11-21T05:02:57;30.52;;;13.48;;
80233;SDS011;69712;42.142;24.766;2023-11-21T05:05:23;24.00;;;12.57;;
80233;SDS011;69712;42.142;24.766;2023-11-21T05:07:49;27.85;;;15.10;;
80233;SDS011;69712;42.142;24.766;2023-11-21T05:10:14;27.13;;;15.85;;
80233;SDS011;69712;42.142;24.766;2023-11-21T05:12:41;28.67;;;15.63;;
80233;SDS011;69712;42.142;24.766;2023-11-21T05:15:07;29.33;;;15.88;;
80233;SDS011;69712;42.142;24.766;2023-11-21T05:17:37;32.08;;;18.63;;
80233;SDS011;69712;42.142;24.766;2023-11-21T05:20:10;26.30;;;15.30;;
80233;SDS011;69712;42.142;24.766;2023-11-21T05:22:37;33.95;;;16.38;;
80233;SDS011;69712;42.142;24.766;2023-11-21T05:25:03;29.70;;;15.23;;
80233;SDS011;69712;42.142;24.766;2023-11-21T05:27:30;28.27;;;14.05;;
80233;SDS011;69712;42.142;24.766;2023-11-21T05:29:56;24.55;;;14.20;;
80233;SDS011;69712;42.142;24.766;2023-11-21T05:32:23;28.55;;;16.30;;
80233;SDS011;69712;42.142;24.766;2023-11-21T05:34:50;28.02;;;16.67;;
80233;SDS011;69712;42.142;24.766;2023-11-21T05:37:16;26.77;;;16.48;;
80233;SDS011;69712;42.142;24.766;2023-11-21T05:39:42;31.40;;;16.77;;
80233;SDS011;69712;42.142;24.766;2023-11-21T05:42:08;30.33;;;16.92;;
80233;SDS011;69712;42.142;24.766;2023-11-21T05:44:35;27.02;;;16.85;;
80233;SDS011;69712;42.142;24.766;2023-11-21T05:47:06;32.65;;;18.33;;
80233;SDS011;69712;42.142;24.766;2023-11-21T05:49:32;34.97;;;19.55;;
80233;SDS011;69712;42.142;24.766;2023-11-21T05:51:58;35.53;;;20.80;;
80233;SDS011;69712;42.142;24.766;2023-11-21T05:54:24;42.78;;;20.52;;
80233;SDS011;69712;42.142;24.766;2023-11-21T05:56:51;36.17;;;19.85;;
80233;SDS011;69712;42.142;24.766;2023-11-21T05:59:17;30.67;;;21.08;;
80233;SDS011;69712;42.142;24.766;2023-11-21T06:01:42;39.55;;;21.77;;
80233;SDS011;69712;42.142;24.766;2023-11-21T06:04:09;38.55;;;21.00;;
80233;SDS011;69712;42.142;24.766;2023-11-21T06:06:35;40.33;;;21.60;;
80233;SDS011;69712;42.142;24.766;2023-11-21T06:09:01;41.30;;;21.60;;
80233;SDS011;69712;42.142;24.766;2023-11-21T06:11:27;39.08;;;19.45;;
80233;SDS011;69712;42.142;24.766;2023-11-21T06:13:53;35.78;;;21.63;;
80233;SDS011;69712;42.142;24.766;2023-11-21T06:16:19;31.90;;;20.52;;
80233;SDS011;69712;42.142;24.766;2023-11-21T06:18:45;37.67;;;21.45;;
80233;SDS011;69712;42.142;24.766;2023-11-21T06:21:11;32.17;;;19.23;;
80233;SDS011;69712;42.142;24.766;2023-11-21T06:23:37;33.92;;;18.00;;
80233;SDS011;69712;42.142;24.766;2023-11-21T06:26:03;36.83;;;18.63;;
80233;SDS011;69712;42.142;24.766;2023-11-21T06:28:30;33.22;;;17.35;;
80233;SDS011;69712;42.142;24.766;2023-11-21T06:30:56;28.75;;;17.30;;
80233;SDS011;69712;42.142;24.766;2023-11-21T06:33:23;29.90;;;16.13;;
80233;SDS011;69712;42.142;24.766;2023-11-21T06:35:52;32.55;;;17.85;;
80233;SDS011;69712;42.142;24.766;2023-11-21T06:38:18;29.30;;;17.10;;
80233;SDS011;69712;42.142;24.766;2023-11-21T06:40:44;30.10;;;16.50;;
80233;SDS011;69712;42.142;24.766;2023-11-21T06:43:10;27.88;;;15.57;;
80233;SDS011;69712;42.142;24.766;2023-11-21T06:45:36;29.90;;;16.10;;
80233;SDS011;69712;42.142;24.766;2023-11-21T06:48:02;25.83;;;15.73;;
80233;SDS011;69712;42.142;24.766;2023-11-21T06:50:28;25.38;;;15.77;;
80233;SDS011;69712;42.142;24.766;2023-11-21T06:52:53;28.77;;;16.40;;
80233;SDS011;69712;42.142;24.766;2023-11-21T06:55:19;33.92;;;17.70;;
80233;SDS011;69712;42.142;24.766;2023-11-21T06:57:45;32.35;;;17.95;;
80233;SDS011;69712;42.142;24.766;2023-11-21T07:00:12;34.38;;;18.55;;
80233;SDS011;69712;42.142;24.766;2023-11-21T07:02:40;31.40;;;16.88;;
80233;SDS011;69712;42.142;24.766;2023-11-21T07:05:06;44.70;;;24.17;;
80233;SDS011;69712;42.142;24.766;2023-11-21T07:07:31;25.73;;;14.70;;
80233;SDS011;69712;42.142;24.766;2023-11-21T07:10:00;29.58;;;15.27;;
80233;SDS011;69712;42.142;24.766;2023-11-21T07:12:28;31.88;;;15.50;;
80233;SDS011;69712;42.142;24.766;2023-11-21T07:14:57;24.95;;;15.05;;
80233;SDS011;69712;42.142;24.766;2023-11-21T07:17:23;31.35;;;16.00;;
80233;SDS011;69712;42.142;24.766;2023-11-21T07:19:49;29.40;;;16.35;;
80233;SDS011;69712;42.142;24.766;2023-11-21T07:22:15;30.45;;;16.20;;
80233;SDS011;69712;42.142;24.766;2023-11-21T07:24:47;32.58;;;16.98;;
80233;SDS011;69712;42.142;24.766;2023-11-21T07:27:15;32.72;;;17.13;;
80233;SDS011;69712;42.142;24.766;2023-11-21T07:29:41;34.63;;;17.00;;
80233;SDS011;69712;42.142;24.766;2023-11-21T07:32:07;36.58;;;16.38;;
80233;SDS011;69712;42.142;24.766;2023-11-21T07:34:34;36.15;;;17.95;;
80233;SDS011;69712;42.142;24.766;2023-11-21T07:37:01;29.65;;;16.77;;
80233;SDS011;69712;42.142;24.766;2023-11-21T07:39:27;37.88;;;17.35;;
80233;SDS011;69712;42.142;24.766;2023-11-21T07:41:53;29.45;;;17.08;;
80233;SDS011;69712;42.142;24.766;2023-11-21T07:44:20;37.35;;;16.00;;
80233;SDS011;69712;42.142;24.766;2023-11-21T07:46:46;26.02;;;15.98;;
80233;SDS011;69712;42.142;24.766;2023-11-21T07:49:12;28.95;;;16.67;;
80233;SDS011;69712;42.142;24.766;2023-11-21T07:51:43;26.00;;;15.55;;
80233;SDS011;69712;42.142;24.766;2023-11-21T07:54:09;29.77;;;15.65;;
80233;SDS011;69712;42.142;24.766;2023-11-21T07:56:35;31.88;;;16.30;;
80233;SDS011;69712;42.142;24.766;2023-11-21T07:59:01;35.88;;;15.80;;
80233;SDS011;69712;42.142;24.766;2023-11-21T08:01:26;30.42;;;17.50;;
80233;SDS011;69712;42.142;24.766;2023-11-21T08:03:53;29.92;;;11.45;;
80233;SDS011;69712;42.142;24.766;2023-11-21T08:06:24;22.48;;;10.35;;
80233;SDS011;69712;42.142;24.766;2023-11-21T08:08:50;16.52;;;10.75;;
80233;SDS011;69712;42.142;24.766;2023-11-21T08:11:16;14.75;;;9.48;;
80233;SDS011;69712;42.142;24.766;2023-11-21T08:13:42;16.67;;;10.15;;
80233;SDS011;69712;42.142;24.766;2023-11-21T08:16:08;14.90;;;8.63;;
80233;SDS011;69712;42.142;24.766;2023-11-21T08:18:33;18.52;;;9.40;;
80233;SDS011;69712;42.142;24.766;2023-11-21T08:21:00;15.02;;;8.95;;
80233;SDS011;69712;42.142;24.766;2023-11-21T08:23:25;16.95;;;9.38;;
80233;SDS011;69712;42.142;24.766;2023-11-21T08:25:51;17.90;;;9.15;;
80233;SDS011;69712;42.142;24.766;2023-11-21T08:28:18;11.95;;;8.60;;
80233;SDS011;69712;42.142;24.766;2023-11-21T08:30:44;11.48;;;7.93;;
80233;SDS011;69712;42.142;24.766;2023-11-21T08:33:09;17.58;;;8.65;;
80233;SDS011;69712;42.142;24.766;2023-11-21T08:35:37;13.07;;;7.93;;
80233;SDS011;69712;42.142;24.766;2023-11-21T08:38:03;22.23;;;8.90;;
80233;SDS011;69712;42.142;24.766;2023-11-21T08:40:29;16.50;;;8.90;;
80233;SDS011;69712;42.142;24.766;2023-11-21T08:42:55;14.93;;;7.22;;
80233;SDS011;69712;42.142;24.766;2023-11-21T08:45:23;10.50;;;6.60;;
80233;SDS011;69712;42.142;24.766;2023-11-21T08:47:51;9.55;;;5.50;;
80233;SDS011;69712;42.142;24.766;2023-11-21T08:50:16;9.48;;;6.93;;
80233;SDS011;69712;42.142;24.766;2023-11-21T08:52:44;10.75;;;7.70;;
80233;SDS011;69712;42.142;24.766;2023-11-21T08:55:11;13.15;;;8.10;;
80233;SDS011;69712;42.142;24.766;2023-11-21T08:57:40;15.73;;;7.85;;
80233;SDS011;69712;42.142;24.766;2023-11-21T09:00:26;13.18;;;8.05;;
80233;SDS011;69712;42.142;24.766;2023-11-21T09:02:52;14.00;;;7.88;;
80233;SDS011;69712;42.142;24.766;2023-11-21T09:05:18;15.02;;;8.15;;
80233;SDS011;69712;42.142;24.766;2023-11-21T09:07:45;13.88;;;8.10;;
80233;SDS011;69712;42.142;24.766;2023-11-21T09:10:13;13.20;;;8.00;;
80233;SDS011;69712;42.142;24.766;2023-11-21T09:12:39;16.10;;;7.63;;
80233;SDS011;69712;42.142;24.766;2023-11-21T09:15:06;15.63;;;9.02;;
80233;SDS011;69712;42.142;24.766;2023-11-21T09:17:33;13.07;;;8.05;;
80233;SDS011;69712;42.142;24.766;2023-11-21T09:20:02;16.17;;;8.50;;
80233;SDS011;69712;42.142;24.766;2023-11-21T09:22:31;14.75;;;8.57;;
80233;SDS011;69712;42.142;24.766;2023-11-21T09:24:57;12.45;;;8.18;;
80233;SDS011;69712;42.142;24.766;2023-11-21T09:27:23;16.95;;;8.45;;
80233;SDS011;69712;42.142;24.766;2023-11-21T09:29:50;12.27;;;7.75;;
80233;SDS011;69712;42.142;24.766;2023-11-21T09:32:17;14.65;;;8.57;;
80233;SDS011;69712;42.142;24.766;2023-11-21T09:34:43;11.23;;;8.13;;
80233;SDS011;69712;42.142;24.766;2023-11-21T09:37:10;12.27;;;8.60;;
80233;SDS011;69712;42.142;24.766;2023-11-21T09:39:35;19.00;;;8.70;;
80233;SDS011;69712;42.142;24.766;2023-11-21T09:42:05;16.75;;;7.80;;
80233;SDS011;69712;42.142;24.766;2023-11-21T09:44:35;18.67;;;10.90;;
80233;SDS011;69712;42.142;24.766;2023-11-21T09:47:05;25.52;;;14.85;;
80233;SDS011;69712;42.142;24.766;2023-11-21T09:49:35;31.60;;;20.27;;
80233;SDS011;69712;42.142;24.766;2023-11-21T09:52:02;16.52;;;12.98;;
80233;SDS011;69712;42.142;24.766;2023-11-21T09:54:29;12.27;;;8.60;;
80233;SDS011;69712;42.142;24.766;2023-11-21T09:56:57;13.43;;;8.60;;
80233;SDS011;69712;42.142;24.766;2023-11-21T09:59:24;13.93;;;8.00;;
80233;SDS011;69712;42.142;24.766;2023-11-21T10:02:00;14.88;;;8.70;;
80233;SDS011;69712;42.142;24.766;2023-11-21T10:04:27;20.13;;;8.40;;
80233;SDS011;69712;42.142;24.766;2023-11-21T10:06:53;14.63;;;8.55;;
80233;SDS011;69712;42.142;24.766;2023-11-21T10:09:20;12.23;;;8.10;;
80233;SDS011;69712;42.142;24.766;2023-11-21T10:11:47;16.02;;;8.38;;
80233;SDS011;69712;42.142;24.766;2023-11-21T10:14:16;19.33;;;10.40;;
80233;SDS011;69712;42.142;24.766;2023-11-21T10:16:46;14.82;;;8.80;;
80233;SDS011;69712;42.142;24.766;2023-11-21T10:19:14;13.13;;;10.52;;
80233;SDS011;69712;42.142;24.766;2023-11-21T10:21:41;17.15;;;9.18;;
80233;SDS011;69712;42.142;24.766;2023-11-21T10:24:07;18.33;;;9.75;;
80233;SDS011;69712;42.142;24.766;2023-11-21T10:26:33;17.30;;;10.10;;
80233;SDS011;69712;42.142;24.766;2023-11-21T10:28:59;20.50;;;12.43;;
80233;SDS011;69712;42.142;24.766;2023-11-21T10:31:28;24.45;;;13.63;;
80233;SDS011;69712;42.142;24.766;2023-11-21T10:34:13;26.13;;;14.00;;
80233;SDS011;69712;42.142;24.766;2023-11-21T10:36:43;21.05;;;12.18;;
80233;SDS011;69712;42.142;24.766;2023-11-21T10:39:09;29.33;;;11.07;;
80233;SDS011;69712;42.142;24.766;2023-11-21T10:41:45;25.02;;;11.18;;
80233;SDS011;69712;42.142;24.766;2023-11-21T10:44:15;16.58;;;10.63;;
80233;SDS011;69712;42.142;24.766;2023-11-21T10:46:48;18.05;;;10.30;;
80233;SDS011;69712;42.142;24.766;2023-11-21T10:49:18;14.73;;;9.02;;
80233;SDS011;69712;42.142;24.766;2023-11-21T10:51:45;12.90;;;8.02;;
80233;SDS011;69712;42.142;24.766;2023-11-21T10:54:15;15.15;;;9.95;;
80233;SDS011;69712;42.142;24.766;2023-11-21T10:56:43;11.60;;;7.40;;
80233;SDS011;69712;42.142;24.766;2023-11-21T10:59:10;14.70;;;9.43;;
80233;SDS011;69712;42.142;24.766;2023-11-21T11:01:43;11.75;;;7.18;;
80233;SDS011;69712;42.142;24.766;2023-11-21T11:04:10;23.25;;;15.50;;
80233;SDS011;69712;42.142;24.766;2023-11-21T11:06:46;15.13;;;8.40;;
80233;SDS011;69712;42.142;24.766;2023-11-21T11:09:18;15.27;;;8.30;;
80233;SDS011;69712;42.142;24.766;2023-11-21T11:11:43;14.85;;;8.77;;
80233;SDS011;69712;42.142;24.766;2023-11-21T11:14:10;12.13;;;8.27;;
80233;SDS011;69712;42.142;24.766;2023-11-21T11:16:38;13.90;;;8.35;;
80233;SDS011;69712;42.142;24.766;2023-11-21T11:19:10;15.43;;;8.95;;
80233;SDS011;69712;42.142;24.766;2023-11-21T11:21:43;11.30;;;8.48;;
80233;SDS011;69712;42.142;24.766;2023-11-21T11:29:41;15.63;;;8.85;;
80233;SDS011;69712;42.142;24.766;2023-11-21T11:33:20;20.55;;;8.55;;
80233;SDS011;69712;42.142;24.766;2023-11-21T11:38:21;16.08;;;8.20;;
80233;SDS011;69712;42.142;24.766;2023-11-21T11:40:48;13.77;;;8.43;;
80233;SDS011;69712;42.142;24.766;2023-11-21T11:43:27;14.25;;;8.15;;
80233;SDS011;69712;42.142;24.766;2023-11-21T11:45:56;12.60;;;7.43;;
80233;SDS011;69712;42.142;24.766;2023-11-21T11:48:28;12.90;;;7.38;;
80233;SDS011;69712;42.142;24.766;2023-11-21T11:51:01;9.35;;;5.70;;
80233;SDS011;69712;42.142;24.766;2023-11-21T11:53:35;9.57;;;5.47;;
80233;SDS011;69712;42.142;24.766;2023-11-21T11:59:00;8.77;;;5.20;;
80233;SDS011;69712;42.142;24.766;2023-11-21T12:01:31;18.20;;;5.72;;
80233;SDS011;69712;42.142;24.766;2023-11-21T12:06:40;10.88;;;6.40;;
80233;SDS011;69712;42.142;24.766;2023-11-21T12:09:07;10.35;;;7.13;;
80233;SDS011;69712;42.142;24.766;2023-11-21T12:11:40;9.10;;;6.43;;
80233;SDS011;69712;42.142;24.766;2023-11-21T12:14:09;11.40;;;7.10;;
80233;SDS011;69712;42.142;24.766;2023-11-21T12:16:35;14.68;;;8.07;;
80233;SDS011;69712;42.142;24.766;2023-11-21T12:19:00;14.30;;;8.90;;
80233;SDS011;69712;42.142;24.766;2023-11-21T12:21:26;14.90;;;9.40;;
80233;SDS011;69712;42.142;24.766;2023-11-21T12:23:53;13.68;;;9.20;;
80233;SDS011;69712;42.142;24.766;2023-11-21T12:26:19;15.98;;;10.35;;
80233;SDS011;69712;42.142;24.766;2023-11-21T12:28:51;17.38;;;10.80;;
80233;SDS011;69712;42.142;24.766;2023-11-21T12:33:46;16.73;;;11.48;;
80233;SDS011;69712;42.142;24.766;2023-11-21T12:36:12;14.32;;;10.57;;
80233;SDS011;69712;42.142;24.766;2023-11-21T12:38:38;14.07;;;9.48;;
80233;SDS011;69712;42.142;24.766;2023-11-21T12:41:04;13.40;;;9.80;;
80233;SDS011;69712;42.142;24.766;2023-11-21T12:43:31;13.57;;;9.05;;
80233;SDS011;69712;42.142;24.766;2023-11-21T12:46:07;9.18;;;7.25;;
80233;SDS011;69712;42.142;24.766;2023-11-21T12:48:38;10.63;;;5.82;;
80233;SDS011;69712;42.142;24.766;2023-11-21T12:51:08;8.30;;;5.78;;
80233;SDS011;69712;42.142;24.766;2023-11-21T12:53:37;9.98;;;5.40;;
80233;SDS011;69712;42.142;24.766;2023-11-21T12:56:07;10.75;;;5.60;;
80233;SDS011;69712;42.142;24.766;2023-11-21T12:58:39;8.95;;;5.78;;
80233;SDS011;69712;42.142;24.766;2023-11-21T13:01:10;10.85;;;5.80;;
80233;SDS011;69712;42.142;24.766;2023-11-21T13:03:37;13.43;;;5.45;;
80233;SDS011;69712;42.142;24.766;2023-11-21T13:06:05;7.80;;;5.80;;
80233;SDS011;69712;42.142;24.766;2023-11-21T13:08:32;9.07;;;5.65;;
80233;SDS011;69712;42.142;24.766;2023-11-21T13:10:59;11.35;;;5.88;;
80233;SDS011;69712;42.142;24.766;2023-11-21T13:13:27;12.23;;;5.90;;
80233;SDS011;69712;42.142;24.766;2023-11-21T13:15:54;9.70;;;5.75;;
80233;SDS011;69712;42.142;24.766;2023-11-21T13:18:21;8.98;;;5.60;;
80233;SDS011;69712;42.142;24.766;2023-11-21T13:20:48;9.38;;;6.07;;
80233;SDS011;69712;42.142;24.766;2023-11-21T13:23:15;10.27;;;5.95;;
80233;SDS011;69712;42.142;24.766;2023-11-21T13:25:44;13.32;;;6.53;;
80233;SDS011;69712;42.142;24.766;2023-11-21T13:28:12;9.73;;;6.45;;
80233;SDS011;69712;42.142;24.766;2023-11-21T13:30:38;10.95;;;6.90;;
80233;SDS011;69712;42.142;24.766;2023-11-21T13:33:05;10.80;;;7.43;;
80233;SDS011;69712;42.142;24.766;2023-11-21T13:35:37;11.30;;;8.10;;
80233;SDS011;69712;42.142;24.766;2023-11-21T13:38:07;13.50;;;7.70;;
80233;SDS011;69712;42.142;24.766;2023-11-21T13:40:35;14.52;;;8.60;;
80233;SDS011;69712;42.142;24.766;2023-11-21T13:43:11;17.17;;;8.85;;
80233;SDS011;69712;42.142;24.766;2023-11-21T13:45:41;15.98;;;9.25;;
80233;SDS011;69712;42.142;24.766;2023-11-21T13:48:08;19.05;;;8.95;;
80233;SDS011;69712;42.142;24.766;2023-11-21T13:50:42;16.58;;;9.30;;
80233;SDS011;69712;42.142;24.766;2023-11-21T13:53:20;18.10;;;9.85;;
80233;SDS011;69712;42.142;24.766;2023-11-21T13:55:49;15.18;;;9.70;;
80233;SDS011;69712;42.142;24.766;2023-11-21T13:58:16;19.13;;;9.63;;
80233;SDS011;69712;42.142;24.766;2023-11-21T14:00:48;20.58;;;10.00;;
80233;SDS011;69712;42.142;24.766;2023-11-21T14:03:21;14.77;;;8.68;;
80233;SDS011;69712;42.142;24.766;2023-11-21T14:05:50;15.73;;;8.82;;
80233;SDS011;69712;42.142;24.766;2023-11-21T14:08:22;19.83;;;12.23;;
80233;SDS011;69712;42.142;24.766;2023-11-21T14:10:53;17.80;;;9.93;;
80233;SDS011;69712;42.142;24.766;2023-11-21T14:13:23;19.25;;;10.00;;
80233;SDS011;69712;42.142;24.766;2023-11-21T14:15:49;19.17;;;10.02;;
80233;SDS011;69712;42.142;24.766;2023-11-21T14:18:22;18.63;;;10.95;;
80233;SDS011;69712;42.142;24.766;2023-11-21T14:20:55;20.02;;;10.80;;
80233;SDS011;69712;42.142;24.766;2023-11-21T14:23:21;18.50;;;10.90;;
80233;SDS011;69712;42.142;24.766;2023-11-21T14:25:48;20.00;;;11.48;;
80233;SDS011;69712;42.142;24.766;2023-11-21T14:28:15;19.65;;;10.95;;
80233;SDS011;69712;42.142;24.766;2023-11-21T14:30:41;20.98;;;11.70;;
80233;SDS011;69712;42.142;24.766;2023-11-21T14:33:07;25.52;;;15.27;;